createdAt,value
2022-08-28T00:00:47.696Z,97985.81
2022-08-28T00:03:21.287Z,97980.09
2022-08-28T00:05:51.343Z,97980.28
2022-08-28T00:08:21.303Z,97981.53
2022-08-28T00:10:51.488Z,97988.03
2022-08-28T00:13:25.482Z,97989.75
2022-08-28T00:16:00.857Z,97996.31
2022-08-28T00:18:34.571Z,97996.44
2022-08-28T00:21:05.792Z,97996.41
2022-08-28T00:23:42.927Z,97993.78
2022-08-28T00:26:34.533Z,98002.13
2022-08-28T00:29:04.171Z,97998.56
2022-08-28T00:31:34.231Z,97998.75
2022-08-28T00:34:06.995Z,98009.84
2022-08-28T00:36:37.650Z,97997.16
2022-08-28T00:39:09.474Z,97996.97
2022-08-28T00:41:42.869Z,97998.63
2022-08-28T00:44:18.170Z,97999.19
2022-08-28T00:46:52.039Z,98004.16
2022-08-28T00:49:30.498Z,97996.13
2022-08-28T00:52:10.794Z,97996.06
2022-08-28T00:54:58.626Z,97991.69
2022-08-28T00:57:36.855Z,97991.38
2022-08-28T01:00:09.583Z,97988.94
2022-08-28T01:02:39.767Z,97988.03
2022-08-28T01:05:12.841Z,97982.81
2022-08-28T01:07:43.150Z,97994.75
2022-08-28T01:10:18.260Z,97991.81
2022-08-28T01:12:49.973Z,97993.13
2022-08-28T01:15:27.514Z,97992.63
2022-08-28T01:18:08.072Z,97990.78
2022-08-28T01:20:50.060Z,97990.19
2022-08-28T01:23:37.198Z,97993.25
2022-08-28T01:26:11.821Z,97987.91
2022-08-28T01:28:42.555Z,97987.41
2022-08-28T01:31:13.936Z,97984.56
2022-08-28T01:33:45.855Z,97991.69
2022-08-28T01:36:17.821Z,97990.44
2022-08-28T01:38:55.639Z,97979.88
2022-08-28T01:41:29.628Z,97982.31
2022-08-28T01:43:59.800Z,97977.84
2022-08-28T01:46:31.244Z,97972.84
2022-08-28T01:49:02.261Z,97970.06
2022-08-28T01:51:35.220Z,97985.19
2022-08-28T01:54:08.821Z,97986.78
2022-08-28T01:56:47.477Z,97977.47
2022-08-28T01:59:18.523Z,97986.91
2022-08-28T02:01:48.790Z,97991.59
2022-08-28T02:04:19.070Z,97989.56
2022-08-28T02:06:50.868Z,97988.00
2022-08-28T02:09:20.962Z,97988.97
2022-08-28T02:11:54.019Z,97987.84
2022-08-28T02:14:25.103Z,97993.34
2022-08-28T02:16:56.240Z,97993.22
2022-08-28T02:19:26.272Z,97990.19
2022-08-28T02:21:56.262Z,97990.00
2022-08-28T02:24:26.279Z,97990.47
2022-08-28T02:26:58.886Z,97987.19
2022-08-28T02:29:29.167Z,97997.88
2022-08-28T02:31:59.430Z,97993.06
2022-08-28T02:34:29.590Z,97994.03
2022-08-28T02:36:59.571Z,97997.63
2022-08-28T02:39:29.924Z,98000.59
2022-08-28T02:42:02.557Z,98000.75
2022-08-28T02:44:32.525Z,98001.50
2022-08-28T02:47:02.612Z,98002.31
2022-08-28T02:49:36.130Z,97990.91
2022-08-28T02:52:07.331Z,97995.59
2022-08-28T02:54:38.809Z,97993.97
2022-08-28T02:57:12.230Z,97993.47
2022-08-28T02:59:43.421Z,97989.22
2022-08-28T03:02:13.485Z,97989.00
2022-08-28T03:04:44.553Z,97990.25
2022-08-28T03:07:15.638Z,97988.75
2022-08-28T03:09:46.297Z,97993.31
2022-08-28T03:12:24.058Z,97990.31
2022-08-28T03:14:54.556Z,97985.50
2022-08-28T03:17:25.426Z,97987.19
2022-08-28T03:19:55.418Z,97989.78
2022-08-28T03:22:45.579Z,97982.50
2022-08-28T03:25:13.049Z,97987.25
2022-08-28T03:27:46.357Z,97989.41
2022-08-28T03:30:18.198Z,97986.63
2022-08-28T03:32:48.490Z,97989.34
2022-08-28T03:35:20.350Z,97981.78
2022-08-28T03:37:50.711Z,97987.97
2022-08-28T03:40:21.517Z,97991.81
2022-08-28T03:42:54.388Z,97986.28
2022-08-28T03:45:24.823Z,97988.75
2022-08-28T03:47:55.862Z,97994.59
2022-08-28T03:50:26.226Z,98000.16
2022-08-28T03:52:59.325Z,97999.97
2022-08-28T03:55:29.536Z,98003.25
2022-08-28T03:58:02.352Z,98007.63
2022-08-28T04:00:32.326Z,98001.16
2022-08-28T04:03:02.345Z,98000.78
2022-08-28T04:05:35.051Z,97996.09
2022-08-28T04:08:06.088Z,97995.34
2022-08-28T04:10:37.294Z,98005.41
2022-08-28T04:13:09.825Z,98006.56
2022-08-28T04:15:40.030Z,98000.97
2022-08-28T04:18:10.575Z,98007.69
2022-08-28T04:20:41.474Z,98007.97
2022-08-28T04:23:16.372Z,98006.31
2022-08-28T04:25:46.375Z,98010.94
2022-08-28T04:28:18.976Z,98013.03
2022-08-28T04:30:49.913Z,98015.72
2022-08-28T04:33:20.017Z,98005.91
2022-08-28T04:35:50.021Z,98012.50
2022-08-28T04:38:20.273Z,98005.06
2022-08-28T04:40:50.376Z,98010.72
2022-08-28T04:43:23.038Z,98002.56
2022-08-28T04:45:53.202Z,98007.69
2022-08-28T04:48:23.292Z,98007.09
2022-08-28T04:50:53.442Z,98011.19
2022-08-28T04:53:23.767Z,98010.53
2022-08-28T04:55:59.002Z,98007.34
2022-08-28T04:58:33.573Z,98007.16
2022-08-28T05:01:11.293Z,98010.94
2022-08-28T05:03:41.878Z,98013.22
2022-08-28T05:06:12.004Z,98017.19
2022-08-28T05:08:42.080Z,98025.34
2022-08-28T05:11:24.507Z,98023.94
2022-08-28T05:14:11.550Z,98021.50
2022-08-28T05:16:48.955Z,98029.53
2022-08-28T05:19:20.839Z,98028.56
2022-08-28T05:21:52.177Z,98031.63
2022-08-28T05:24:23.145Z,98036.38
2022-08-28T05:26:53.424Z,98032.59
2022-08-28T05:29:26.120Z,98035.25
2022-08-28T05:31:56.199Z,98035.66
2022-08-28T05:34:26.252Z,98034.81
2022-08-28T05:36:56.307Z,98031.81
2022-08-28T05:39:26.358Z,98035.13
2022-08-28T05:41:56.430Z,98036.50
2022-08-28T05:44:29.180Z,98033.09
2022-08-28T05:46:59.431Z,98039.97
2022-08-28T05:49:29.407Z,98037.97
2022-08-28T05:51:59.624Z,98040.94
2022-08-28T05:54:29.656Z,98043.16
2022-08-28T05:56:59.654Z,98041.84
2022-08-28T05:59:32.196Z,98044.81
2022-08-28T06:02:04.383Z,98048.09
2022-08-28T06:04:36.389Z,98040.22
2022-08-28T06:07:08.154Z,98057.16
2022-08-28T06:09:38.422Z,98051.84
2022-08-28T06:12:08.811Z,98057.06
2022-08-28T06:14:41.725Z,98055.13
2022-08-28T06:17:12.040Z,98065.56
2022-08-28T06:19:42.180Z,98057.84
2022-08-28T06:22:14.867Z,98062.88
2022-08-28T06:24:44.952Z,98058.13
2022-08-28T06:27:15.008Z,98060.19
2022-08-28T06:29:47.569Z,98054.38
2022-08-28T06:32:18.045Z,98061.81
2022-08-28T06:34:48.218Z,98064.69
2022-08-28T06:37:18.209Z,98058.72
2022-08-28T06:39:48.245Z,98070.09
2022-08-28T06:42:18.180Z,98065.09
2022-08-28T06:44:50.834Z,98066.47
2022-08-28T06:47:20.808Z,98072.53
2022-08-28T06:49:51.026Z,98071.75
2022-08-28T06:52:21.154Z,98076.56
2022-08-28T06:54:55.581Z,98075.56
2022-08-28T06:57:26.274Z,98083.50
2022-08-28T07:00:01.885Z,98081.47
2022-08-28T07:02:33.149Z,98089.78
2022-08-28T07:05:03.346Z,98086.16
2022-08-28T07:07:33.299Z,98096.50
2022-08-28T07:10:03.363Z,98090.25
2022-08-28T07:12:33.365Z,98098.31
2022-08-28T07:15:07.066Z,98097.84
2022-08-28T07:17:37.033Z,98101.75
2022-08-28T07:20:11.389Z,98108.50
2022-08-28T07:22:42.061Z,98107.19
2022-08-28T07:25:13.945Z,98103.84
2022-08-28T07:27:43.884Z,98102.00
2022-08-28T07:30:17.229Z,98106.69
2022-08-28T07:32:49.253Z,98107.47
2022-08-28T07:35:19.627Z,98106.44
2022-08-28T07:37:50.894Z,98113.69
2022-08-28T07:40:22.360Z,98111.63
2022-08-28T07:43:04.982Z,98118.84
2022-08-28T07:45:37.993Z,98122.78
2022-08-28T07:48:11.511Z,98123.03
2022-08-28T07:50:41.937Z,98124.06
2022-08-28T07:53:12.457Z,98125.09
2022-08-28T07:55:42.445Z,98133.91
2022-08-28T07:58:12.707Z,98126.59
2022-08-28T08:00:45.680Z,98128.97
2022-08-28T08:03:16.373Z,98133.91
2022-08-28T08:05:55.753Z,98133.78
2022-08-28T08:08:26.236Z,98133.06
2022-08-28T08:11:04.155Z,98136.41
2022-08-28T08:13:38.134Z,98144.97
2022-08-28T08:16:14.902Z,98142.13
2022-08-28T08:18:45.705Z,98142.47
2022-08-28T08:21:19.792Z,98149.06
2022-08-28T08:23:51.458Z,98139.84
2022-08-28T08:26:24.442Z,98143.47
2022-08-28T08:28:55.480Z,98148.38
2022-08-28T08:31:32.400Z,98152.81
2022-08-28T08:34:05.747Z,98152.84
2022-08-28T08:36:39.598Z,98143.03
2022-08-28T08:39:10.357Z,98144.81
2022-08-28T08:41:48.345Z,98146.19
2022-08-28T08:44:33.658Z,98141.81
2022-08-28T08:47:15.501Z,98141.03
2022-08-28T08:49:55.641Z,98138.31
2022-08-28T08:52:45.178Z,98143.50
2022-08-28T08:55:28.933Z,98142.66
2022-08-28T08:58:10.168Z,98143.16
2022-08-28T09:00:51.868Z,98141.41
2022-08-28T09:03:30.183Z,98143.78
2022-08-28T09:06:06.455Z,98135.97
2022-08-28T09:08:45.344Z,98129.81
2022-08-28T09:11:32.408Z,98140.00
2022-08-28T09:14:14.533Z,98138.16
2022-08-28T09:16:49.794Z,98142.78
2022-08-28T09:19:24.609Z,98144.19
2022-08-28T09:21:55.612Z,98135.28
2022-08-28T09:24:29.244Z,98143.25
2022-08-28T09:27:03.444Z,98136.56
2022-08-28T09:29:39.024Z,98139.97
2022-08-28T09:32:27.502Z,98144.13
2022-08-28T09:35:15.544Z,98149.41
2022-08-28T09:37:46.821Z,98146.94
2022-08-28T09:40:25.388Z,98144.06
2022-08-28T09:43:22.178Z,98150.72
2022-08-28T09:46:03.021Z,98145.19
2022-08-28T09:48:40.191Z,98150.75
2022-08-28T09:51:16.118Z,98143.22
2022-08-28T09:54:02.265Z,98147.22
2022-08-28T09:56:36.532Z,98146.97
2022-08-28T09:59:11.809Z,98151.72
2022-08-28T10:02:02.276Z,98149.91
2022-08-28T10:04:50.684Z,98156.84
2022-08-28T10:07:36.889Z,98155.50
2022-08-28T10:10:23.158Z,98150.56
2022-08-28T10:13:08.938Z,98147.75
2022-08-28T10:16:04.907Z,98141.84
2022-08-28T10:18:50.118Z,98149.25
2022-08-28T10:21:30.068Z,98154.72
2022-08-28T10:24:29.395Z,98149.63
2022-08-28T10:27:12.631Z,98143.00
2022-08-28T10:29:56.314Z,98147.66
2022-08-28T10:33:05.350Z,98144.94
2022-08-28T10:35:52.026Z,98152.25
2022-08-28T10:38:35.943Z,98155.06
2022-08-28T10:41:16.845Z,98145.19
2022-08-28T10:43:51.377Z,98143.34
2022-08-28T10:46:27.358Z,98138.00
2022-08-28T10:49:05.887Z,98141.94
2022-08-28T10:51:44.424Z,98146.09
2022-08-28T10:54:26.634Z,98142.47
2022-08-28T10:57:11.151Z,98151.19
2022-08-28T10:59:44.592Z,98141.13
2022-08-28T11:02:19.426Z,98146.59
2022-08-28T11:04:51.859Z,98141.97
2022-08-28T11:07:33.006Z,98152.09
2022-08-28T11:10:20.701Z,98148.28
2022-08-28T11:12:55.226Z,98154.88
2022-08-28T11:15:47.623Z,98149.09
2022-08-28T11:19:19.583Z,98151.78
2022-08-28T11:21:55.816Z,98150.06
2022-08-28T11:24:45.860Z,98154.50
2022-08-28T11:27:27.484Z,98154.63
2022-08-28T11:30:36.829Z,98153.47
2022-08-28T11:33:32.605Z,98145.28
2022-08-28T11:36:07.132Z,98137.84
2022-08-28T11:39:09.196Z,98147.97
2022-08-28T11:41:41.729Z,98144.53
2022-08-28T11:44:43.742Z,98131.97
2022-08-28T11:47:48.650Z,98139.50
2022-08-28T11:50:35.786Z,98144.84
2022-08-28T11:53:44.806Z,98139.88
2022-08-28T11:56:53.312Z,98153.97
2022-08-28T11:59:55.664Z,98146.06
2022-08-28T12:03:06.669Z,98150.75
2022-08-28T12:05:57.145Z,98150.00
2022-08-28T12:09:15.496Z,98147.06
2022-08-28T12:12:06.311Z,98146.28
2022-08-28T12:15:02.503Z,98139.31
2022-08-28T12:17:57.195Z,98141.66
2022-08-28T12:21:03.913Z,98141.97
2022-08-28T12:23:46.360Z,98137.03
2022-08-28T12:26:30.034Z,98142.00
2022-08-28T12:29:03.964Z,98142.16
2022-08-28T12:32:28.027Z,98140.38
2022-08-28T12:35:19.316Z,98134.34
2022-08-28T12:38:03.851Z,98141.59
2022-08-28T12:40:50.529Z,98133.69
2022-08-28T12:43:35.694Z,98140.28
2022-08-28T12:46:19.615Z,98136.38
2022-08-28T12:48:56.712Z,98132.03
2022-08-28T12:51:29.831Z,98132.63
2022-08-28T12:54:03.858Z,98128.50
2022-08-28T12:56:38.707Z,98120.75
2022-08-28T12:59:37.814Z,98117.22
2022-08-28T13:02:13.205Z,98120.44
2022-08-28T13:04:53.869Z,98117.44
2022-08-28T13:07:32.566Z,98124.91
2022-08-28T13:10:08.951Z,98129.75
2022-08-28T13:12:54.722Z,98119.84
2022-08-28T13:15:51.849Z,98119.16
2022-08-28T13:18:39.311Z,98122.44
2022-08-28T13:21:34.854Z,98115.72
2022-08-28T13:24:45.690Z,98122.72
2022-08-28T13:27:27.152Z,98112.25
2022-08-28T13:30:10.912Z,98112.88
2022-08-28T13:32:43.641Z,98109.63
2022-08-28T13:35:43.101Z,98101.28
2022-08-28T13:38:16.547Z,98112.13
2022-08-28T13:40:59.359Z,98104.44
2022-08-28T13:43:32.829Z,98101.16
2022-08-28T13:46:02.829Z,98099.22
2022-08-28T13:48:35.670Z,98096.56
2022-08-28T13:51:10.377Z,98103.28
2022-08-28T13:53:41.839Z,98103.88
2022-08-28T13:56:11.986Z,98095.06
2022-08-28T13:58:42.034Z,98093.50
2022-08-28T14:01:14.167Z,98094.59
2022-08-28T14:03:45.440Z,98093.75
2022-08-28T14:06:19.397Z,98099.34
2022-08-28T14:08:52.694Z,98090.66
2022-08-28T14:11:23.678Z,98090.41
2022-08-28T14:13:55.175Z,98085.09
2022-08-28T14:16:26.316Z,98088.78
2022-08-28T14:19:04.078Z,98093.72
2022-08-28T14:21:34.850Z,98089.81
2022-08-28T14:24:06.553Z,98086.03
2022-08-28T14:26:37.321Z,98082.31
2022-08-28T14:29:12.146Z,98081.69
2022-08-28T14:31:44.122Z,98087.97
2022-08-28T14:34:21.456Z,98080.94
2022-08-28T14:36:55.323Z,98078.84
2022-08-28T14:39:27.778Z,98075.16
2022-08-28T14:41:58.342Z,98070.34
2022-08-28T14:44:28.763Z,98077.38
2022-08-28T14:46:59.151Z,98074.28
2022-08-28T14:49:31.900Z,98069.19
2022-08-28T14:52:01.993Z,98068.22
2022-08-28T14:54:31.978Z,98065.59
2022-08-28T14:57:02.064Z,98073.34
2022-08-28T14:59:34.689Z,98068.91
2022-08-28T15:02:05.605Z,98061.28
2022-08-28T15:04:38.258Z,98065.50
2022-08-28T15:07:13.104Z,98058.44
2022-08-28T15:09:45.869Z,98060.50
2022-08-28T15:12:17.177Z,98058.59
2022-08-28T15:14:54.761Z,98061.72
2022-08-28T15:17:34.097Z,98063.97
2022-08-28T15:20:08.692Z,98060.84
2022-08-28T15:22:38.748Z,98061.22
2022-08-28T15:25:09.821Z,98067.94
2022-08-28T15:27:40.378Z,98068.63
2022-08-28T15:30:12.276Z,98064.63
2022-08-28T15:32:44.649Z,98065.72
2022-08-28T15:35:17.319Z,98063.81
2022-08-28T15:37:47.829Z,98065.28
2022-08-28T15:40:30.576Z,98059.44
2022-08-28T15:43:00.596Z,98061.59
2022-08-28T15:45:30.668Z,98063.53
2022-08-28T15:48:01.194Z,98056.44
2022-08-28T15:50:34.072Z,98053.38
2022-08-28T15:53:06.205Z,98053.28
2022-08-28T15:55:37.265Z,98054.25
2022-08-28T15:58:13.927Z,98057.94
2022-08-28T16:00:44.996Z,98063.69
2022-08-28T16:03:15.781Z,98050.16
2022-08-28T16:05:49.403Z,98049.56
2022-08-28T16:08:19.385Z,98054.94
2022-08-28T16:10:51.782Z,98058.34
2022-08-28T16:13:23.193Z,98055.34
2022-08-28T16:15:53.265Z,98058.25
2022-08-28T16:18:23.672Z,98056.25
2022-08-28T16:20:56.300Z,98058.44
2022-08-28T16:23:26.353Z,98057.50
2022-08-28T16:25:56.467Z,98059.66
2022-08-28T16:28:27.188Z,98061.97
2022-08-28T16:30:57.664Z,98061.22
2022-08-28T16:33:30.364Z,98057.25
2022-08-28T16:36:04.168Z,98053.50
2022-08-28T16:38:34.140Z,98058.31
2022-08-28T16:41:04.156Z,98049.56
2022-08-28T16:43:34.205Z,98053.47
2022-08-28T16:46:04.247Z,98052.50
2022-08-28T16:48:34.257Z,98057.19
2022-08-28T16:51:07.466Z,98051.16
2022-08-28T16:53:38.958Z,98056.22
2022-08-28T16:56:09.856Z,98051.53
2022-08-28T16:58:42.428Z,98062.06
2022-08-28T17:01:14.290Z,98058.28
2022-08-28T17:03:45.184Z,98064.47
2022-08-28T17:06:23.408Z,98057.63
2022-08-28T17:08:56.990Z,98058.00
2022-08-28T17:11:28.449Z,98060.09
2022-08-28T17:14:00.543Z,98063.13
2022-08-28T17:16:32.426Z,98064.44
2022-08-28T17:19:02.789Z,98063.75
2022-08-28T17:21:47.860Z,98065.56
2022-08-28T17:24:17.966Z,98061.47
2022-08-28T17:26:48.066Z,98066.06
2022-08-28T17:29:18.262Z,98067.25
2022-08-28T17:31:48.320Z,98073.19
2022-08-28T17:34:20.515Z,98076.94
2022-08-28T17:36:54.318Z,98067.69
2022-08-28T17:39:25.291Z,98076.25
2022-08-28T17:41:55.334Z,98082.88
2022-08-28T17:44:26.080Z,98077.94
2022-08-28T17:46:56.187Z,98078.47
2022-08-28T17:49:26.958Z,98089.53
2022-08-28T17:51:59.529Z,98082.31
2022-08-28T17:54:29.472Z,98086.72
2022-08-28T17:57:00.168Z,98084.38
2022-08-28T17:59:30.561Z,98081.81
2022-08-28T18:02:01.168Z,98091.03
2022-08-28T18:04:31.190Z,98090.91
2022-08-28T18:07:03.750Z,98086.56
2022-08-28T18:09:33.712Z,98090.56
2022-08-28T18:12:04.173Z,98097.44
2022-08-28T18:14:34.144Z,98094.63
2022-08-28T18:17:04.542Z,98102.22
2022-08-28T18:19:34.525Z,98104.03
2022-08-28T18:22:07.510Z,98101.72
2022-08-28T18:24:37.492Z,98110.31
2022-08-28T18:27:08.825Z,98118.38
2022-08-28T18:29:40.060Z,98117.31
2022-08-28T18:32:10.357Z,98118.38
2022-08-28T18:34:40.369Z,98128.44
2022-08-28T18:37:12.979Z,98127.63
2022-08-28T18:39:42.986Z,98135.38
2022-08-28T18:42:14.795Z,98137.97
2022-08-28T18:44:44.760Z,98138.97
2022-08-28T18:47:14.781Z,98139.25
2022-08-28T18:49:45.369Z,98149.34
2022-08-28T18:52:18.014Z,98147.75
2022-08-28T18:54:48.153Z,98158.88
2022-08-28T18:57:18.813Z,98155.50
2022-08-28T18:59:49.229Z,98157.03
2022-08-28T19:02:19.943Z,98160.09
2022-08-28T19:04:50.009Z,98161.03
2022-08-28T19:07:22.716Z,98166.19
2022-08-28T19:09:52.693Z,98170.28
2022-08-28T19:12:22.702Z,98173.88
2022-08-28T19:14:56.449Z,98181.84
2022-08-28T19:17:27.516Z,98180.47
2022-08-28T19:19:57.758Z,98181.47
2022-08-28T19:22:30.372Z,98182.50
2022-08-28T19:25:00.426Z,98183.44
2022-08-28T19:27:30.482Z,98190.22
2022-08-28T19:30:00.431Z,98186.56
2022-08-28T19:32:31.427Z,98199.53
2022-08-28T19:35:01.974Z,98193.09
2022-08-28T19:37:34.611Z,98187.16
2022-08-28T19:40:05.369Z,98190.75
2022-08-28T19:42:36.430Z,98192.81
2022-08-28T19:45:08.301Z,98191.66
2022-08-28T19:47:38.483Z,98190.63
2022-08-28T19:50:14.529Z,98199.41
2022-08-28T19:52:48.445Z,98194.69
2022-08-28T19:55:24.501Z,98195.59
2022-08-28T19:57:55.006Z,98196.56
2022-08-28T20:00:29.338Z,98197.00
2022-08-28T20:02:59.512Z,98199.94
2022-08-28T20:05:29.564Z,98203.59
2022-08-28T20:08:02.168Z,98206.09
2022-08-28T20:10:33.553Z,98204.44
2022-08-28T20:13:03.552Z,98205.47
2022-08-28T20:15:33.581Z,98213.63
2022-08-28T20:18:03.621Z,98217.00
2022-08-28T20:20:34.044Z,98213.66
2022-08-28T20:23:07.499Z,98213.75
2022-08-28T20:25:37.670Z,98221.66
2022-08-28T20:28:08.598Z,98212.38
2022-08-28T20:30:41.541Z,98218.22
2022-08-28T20:33:11.781Z,98212.09
2022-08-28T20:35:42.066Z,98218.16
2022-08-28T20:38:14.790Z,98221.69
2022-08-28T20:40:44.965Z,98224.72
2022-08-28T20:43:14.987Z,98220.81
2022-08-28T20:45:45.231Z,98222.91
2022-08-28T20:48:15.535Z,98226.34
2022-08-28T20:50:45.802Z,98224.84
2022-08-28T20:53:29.365Z,98227.16
2022-08-28T20:56:12.230Z,98232.78
2022-08-28T20:58:42.226Z,98235.38
2022-08-28T21:01:15.344Z,98224.34
2022-08-28T21:03:45.713Z,98230.06
2022-08-28T21:06:15.732Z,98229.75
2022-08-28T21:08:49.925Z,98227.09
2022-08-28T21:11:20.343Z,98236.28
2022-08-28T21:13:50.300Z,98233.16
2022-08-28T21:16:20.750Z,98238.44
2022-08-28T21:19:12.118Z,98237.94
2022-08-28T21:21:41.168Z,98226.59
2022-08-28T21:24:16.879Z,98233.34
2022-08-28T21:26:50.445Z,98239.28
2022-08-28T21:29:24.504Z,98248.69
2022-08-28T21:31:55.787Z,98243.31
2022-08-28T21:34:25.786Z,98250.03
2022-08-28T21:36:55.901Z,98242.19
2022-08-28T21:39:28.540Z,98247.78
2022-08-28T21:41:58.606Z,98247.16
2022-08-28T21:44:29.060Z,98248.69
2022-08-28T21:46:59.038Z,98250.84
2022-08-28T21:49:29.216Z,98251.34
2022-08-28T21:52:01.179Z,98249.25
2022-08-28T21:54:33.834Z,98245.69
2022-08-28T21:57:03.781Z,98245.69
2022-08-28T21:59:38.041Z,98243.09
2022-08-28T22:02:08.882Z,98241.97
2022-08-28T22:04:39.900Z,98248.47
2022-08-28T22:07:11.355Z,98252.38
2022-08-28T22:09:45.168Z,98253.38
2022-08-28T22:12:16.458Z,98247.56
2022-08-28T22:14:46.716Z,98249.44
2022-08-28T22:17:17.606Z,98244.31
2022-08-28T22:19:47.605Z,98247.31
2022-08-28T22:22:31.223Z,98256.72
2022-08-28T22:25:03.865Z,98249.75
2022-08-28T22:27:34.709Z,98252.22
2022-08-28T22:30:04.826Z,98250.22
2022-08-28T22:32:34.858Z,98252.91
2022-08-28T22:35:06.605Z,98247.31
2022-08-28T22:37:36.601Z,98250.66
2022-08-28T22:40:13.233Z,98247.81
2022-08-28T22:42:44.156Z,98259.34
2022-08-28T22:45:14.688Z,98253.66
2022-08-28T22:47:44.755Z,98259.34
2022-08-28T22:50:14.919Z,98257.56
2022-08-28T22:52:48.330Z,98260.44
2022-08-28T22:55:23.323Z,98261.75
2022-08-28T22:57:54.018Z,98259.41
2022-08-28T23:00:28.606Z,98261.19
2022-08-28T23:03:01.193Z,98263.84
2022-08-28T23:05:32.816Z,98256.84
2022-08-28T23:08:02.949Z,98265.13
2022-08-28T23:10:57.446Z,98260.41
2022-08-28T23:13:26.117Z,98256.84
2022-08-28T23:15:56.300Z,98264.34
2022-08-28T23:18:26.317Z,98261.53
2022-08-28T23:20:58.450Z,98261.63
2022-08-28T23:23:28.834Z,98254.38
2022-08-28T23:26:01.428Z,98260.50
2022-08-28T23:28:31.604Z,98256.56
2022-08-28T23:31:01.584Z,98262.13
2022-08-28T23:33:31.566Z,98257.53
2022-08-28T23:36:02.772Z,98260.72
2022-08-28T23:38:32.855Z,98256.03
2022-08-28T23:41:05.882Z,98253.13
2022-08-28T23:43:37.255Z,98250.41
2022-08-28T23:46:08.467Z,98248.84
2022-08-28T23:48:39.180Z,98250.53
2022-08-28T23:51:12.353Z,98247.97
2022-08-28T23:53:44.550Z,98246.63
2022-08-28T23:56:17.228Z,98242.78
2022-08-28T23:58:48.270Z,98238.13
